Latest Coastal Weather Observations for Moruya Airport

IDN60701

Issued at 8:45 pm EDT Tuesday 31 March 2015 (issued every 10 minutes, with the page automatically refreshed every 10 minutes)

About coastal observations | Map of coastal stations | Coastal observations for NSW | Marine services | Other Formats
Station Details ID: 069148 Name: MORUYA AIRPORT AWS Lat: -35.90 Lon: 150.14 Height: 4.0 m
Data from the previous 72 hours. | See also: Recent months for locations in New South Wales
Date/Time
EDT
Temp

°C
Wind Pressure Rain
since 9am
mm
Weather Cloud Vis
km
Sea
Height
m
Swell
Dir
 
Speed
knots
Gust
knots
hPa Trend Height
m
Period
s
Dir
31/08:30pm 18.4 N 4 6 1025.5 - 0.0 - - 10 - - - -
31/08:00pm 19.1 N 4 6 1025.3 - 0.0 - - 10 - - - -
31/07:30pm 19.7 N 7 8 1024.9 - 0.0 - - 10 - - - -
31/07:00pm 20.7 NNE 10 12 1024.6 - 0.0 - - 10 - - - -
31/06:30pm 21.2 NNE 9 13 1024.3 - 0.0 - - 10 - - - -
31/06:00pm 21.9 NE 9 11 1024.1 - 0.0 - - 10 - - - -
31/05:30pm 22.2 NE 9 12 1024.1 - 0.0 - - 10 - - - -
31/05:00pm 22.3 NE 10 12 1024.1 - 0.0 - - 10 - - - -
31/04:30pm 23.0 NE 11 12 1024.2 - 0.0 - - 10 - - - -
31/04:00pm 23.4 ENE 9 11 1024.6 - 0.0 - - 10 - - - -
31/03:30pm 23.2 ENE 7 8 1025.0 - 0.0 - - 10 - - - -
31/03:00pm 22.9 ENE 8 10 1025.3 - 0.0 - - 10 - - - -
31/02:30pm 23.2 E 7 9 1025.5 - 0.0 - - 10 - - - -
31/02:00pm 22.9 E 7 9 1025.9 - 0.0 - - 10 - - - -
31/01:30pm 22.8 ESE 8 10 1026.4 - 0.0 - - 10 - - - -
31/01:00pm 22.9 ESE 7 9 1026.7 - 0.0 - - 10 - - - -
31/12:30pm 22.9 E 7 9 1027.0 - 0.0 - - 10 - - - -
31/12:00pm 22.8 ESE 6 9 1027.4 - 0.0 - - 10 - - - -
31/11:30am 23.2 WSW 4 6 1027.7 - 0.0 - - 10 - - - -
31/10:30am 21.5 WSW 5 7 1027.8 - 0.0 - - 10 - - - -
31/10:00am 19.5 W 4 6 1027.8 - 0.0 - - 44 - - - -
31/09:00am 16.2 WSW 4 7 1027.3 - 0.0 - - 10 - - - -
31/08:30am 14.9 WSW 2 4 1027.0 - 0.0 - - 10 - - - -
31/08:00am 13.8 WSW 1 3 1026.7 - 0.0 - - 10 - - - -
31/07:30am 12.7 WSW 2 5 1026.3 - 0.0 - - 10 - - - -
31/07:00am 13.2 W 4 6 1026.1 - 0.0 - - 10 - - - -
31/06:30am 13.5 WSW 4 6 1025.7 - 0.0 - - 10 - - - -
31/06:00am 13.8 WSW 5 7 1025.5 - 0.0 - - 10 - - - -
31/05:30am 13.6 WSW 4 6 1025.4 - 0.0 - - 10 - - - -
31/05:00am 13.4 SW 5 6 1025.3 - 0.0 - Partly cloudy 10 - - - -
31/04:30am 13.8 W 4 6 1025.4 - 0.0 - - 10 - - - -
31/04:00am 13.8 W 5 7 1025.5 - 0.0 - - 10 - - - -
31/03:30am 14.0 W 5 7 1025.6 - 0.0 - - 10 - - - -
31/03:00am 13.8 WSW 3 5 1025.6 - 0.0 - - 10 - - - -
31/02:30am 14.0 WSW 2 4 1025.8 - 0.0 - - 10 - - - -
31/02:00am 14.6 CALM 0 3 1025.9 - 0.0 - - 10 - - - -
31/01:30am 14.6 WSW 1 4 1025.9 - 0.0 - - 10 - - - -
31/01:00am 14.4 W 1 4 1025.9 - 0.0 - - 10 - - - -
31/12:30am 14.7 CALM 0 0 1026.0 - 0.0 - - 10 - - - -
 
Date/Time
EDT
Temp

°C
Wind Pressure Rain
since 9am
mm
Weather Cloud Vis
km
Sea
Height
m
Swell
Dir
 
Speed
knots
Gust
knots
hPa Trend Height
m
Period
s
Dir
30/11:30pm 16.1 WNW 1 3 1025.8 - 0.0 - - 10 - - - -
30/11:00pm 16.5 WSW 3 5 1025.7 - 0.0 - - 10 - - - -
30/10:30pm 16.3 WSW 3 5 1025.7 - 0.0 - - 10 - - - -
30/10:00pm 15.9 CALM 0 0 1025.7 - 0.0 - - 10 - - - -
30/09:30pm 16.3 CALM 0 0 1025.6 - 0.0 - - 10 - - - -
30/09:00pm 16.8 CALM 0 0 1025.5 - 0.0 - Cloudy 10 - - - -
30/08:30pm 16.9 SW 3 4 1025.3 - 0.0 - - 10 - - - -
30/08:00pm 17.4 CALM 0 0 1024.9 - 0.0 - - 10 - - - -
30/07:30pm 18.1 CALM 0 0 1024.4 - 0.0 - - 10 - - - -
30/07:00pm 18.9 N 1 3 1024.1 - 0.0 - - 10 - - - -
30/06:30pm 20.1 CALM 0 0 1023.6 - 0.0 - - 10 - - - -
30/06:00pm 20.6 N 1 4 1023.3 - 0.0 - Mostly cloudy 10 - - - -
30/05:30pm 20.8 N 5 7 1023.0 - 0.0 - - 10 - - - -
30/05:00pm 21.0 NE 7 10 1022.9 - 0.0 - - 10 - - - -
30/04:30pm 21.1 NE 7 9 1022.8 - 0.0 - - 10 - - - -
30/04:00pm 21.6 ENE 7 8 1022.7 - 0.0 - - 10 - - - -
30/03:30pm 21.6 ENE 5 7 1022.6 - 0.0 - - 10 - - - -
30/03:00pm 20.9 NE 6 7 1022.8 - 0.0 - Partly cloudy 10 - - - -
30/02:30pm 21.0 ENE 5 7 1022.9 - 0.0 - - 10 - - - -
30/02:00pm 20.7 E 5 6 1023.0 - 0.0 - - 10 - - - -
30/01:30pm 20.9 ESE 4 6 1023.3 - 0.0 - - 10 - - - -
30/01:00pm 21.3 SSE 3 6 1023.7 - 0.0 - - 10 - - - -
30/12:30pm 20.7 WNW 2 4 1024.1 - 0.0 - - 10 - - - -
30/12:00pm 20.7 WSW 5 8 1024.1 - 0.0 - - 10 - - - -
30/11:30am 19.2 WSW 1 4 1024.5 - 0.0 - - 10 - - - -
30/11:00am 19.6 WSW 3 5 1024.7 - 0.0 - - 10 - - - -
30/10:30am 19.6 WNW 5 7 1024.8 - 0.0 - - 10 - - - -
30/10:00am 19.2 WSW 4 6 1024.8 - 0.0 - - 10 - - - -
30/09:30am 15.7 WSW 1 5 1024.9 - 0.0 - - 10 - - - -
30/09:00am 14.3 WNW 1 4 1025.0 - 0.0 - - 10 - - - -
30/08:30am 12.5 CALM 0 0 1024.7 - 0.0 - - 10 - - - -
30/08:00am 11.2 CALM 0 3 1024.4 - 0.0 - - 10 - - - -
30/07:30am 10.6 WSW 1 5 1024.2 - 0.0 - - 10 - - - -
30/07:00am 10.6 CALM 0 0 1023.8 - 0.0 - - 10 - - - -
30/06:30am 10.9 CALM 0 3 1023.4 - 0.0 - - 10 - - - -
30/06:00am 11.5 W 3 5 1023.0 - 0.0 - - 10 - - - -
30/05:30am 11.7 WSW 4 7 1022.8 - 0.0 - - 10 - - - -
30/05:00am 11.7 WSW 6 8 1022.7 - 0.0 - - 10 - - - -
30/04:30am 10.8 WSW 5 6 1022.7 - 0.0 - - 10 - - - -
30/04:00am 11.0 WSW 4 6 1022.8 - 0.0 - - 10 - - - -
30/03:30am 11.3 WSW 4 6 1022.7 - 0.0 - - 10 - - - -
30/03:00am 11.8 W 4 6 1023.0 - 0.0 - - 10 - - - -
30/02:30am 12.2 W 4 5 1023.2 - 0.0 - - 9 - - - -
30/02:00am 12.4 W 4 7 1023.3 - 0.0 - - 9 - - - -
30/01:30am 12.7 W 3 5 1023.2 - 0.0 - - 10 - - - -
30/01:00am 13.5 WSW 5 8 1023.2 - 0.0 - - 8 - - - -
30/12:30am 13.1 WSW 5 7 1023.0 - 0.0 - - 10 - - - -
30/12:00am 12.7 WSW 5 6 1023.2 - 0.0 - - 8 - - - -
 
Date/Time
EDT
Temp

°C
Wind Pressure Rain
since 9am
mm
Weather Cloud Vis
km
Sea
Height
m
Swell
Dir
 
Speed
knots
Gust
knots
hPa Trend Height
m
Period
s
Dir
29/11:30pm 12.8 W 4 6 1023.4 - 0.0 - - 7 - - - -
29/11:00pm 12.5 W 4 6 1023.4 - 0.0 - - 10 - - - -
29/10:30pm 12.9 WSW 4 6 1023.4 - 0.0 - - 7 - - - -
29/10:00pm 12.1 W 1 4 1023.2 - 0.0 - - 10 - - - -
29/09:30pm 12.7 CALM 0 0 1023.0 - 0.0 - - 10 - - - -
29/09:00pm 12.8 CALM 0 0 1022.8 - 0.0 - - 8 - - - -
29/08:30pm 13.6 CALM 0 0 1022.6 - 0.0 - - 7 - - - -
29/08:00pm 14.3 CALM 0 0 1022.1 - 0.0 - - 10 - - - -
29/07:30pm 14.7 SW 1 3 1021.7 - 0.0 - - 10 - - - -
29/07:00pm 16.8 SW 3 4 1021.3 - 0.0 - - 8 - - - -
29/06:30pm 20.1 S 1 3 1020.8 - 0.0 - - 10 - - - -
29/06:00pm 21.3 SSE 4 5 1020.6 - 0.0 - - 10 - - - -
29/05:30pm 21.7 SSE 5 7 1020.4 - 0.0 - - 10 - - - -
29/05:00pm 22.1 NE 5 6 1020.3 - 0.0 - - 10 - - - -
29/04:30pm 22.1 ESE 6 8 1020.2 - 0.0 - - 10 - - - -
29/04:00pm 22.2 E 6 9 1020.4 - 0.0 - - 10 - - - -
29/03:30pm 22.4 E 7 9 1020.6 - 0.0 - - 10 - - - -
29/03:00pm 22.7 E 7 9 1020.7 - 0.0 - - 10 - - - -
29/02:30pm 21.9 E 8 10 1020.8 - 0.0 - - 10 - - - -
29/02:00pm 21.8 ENE 7 8 1021.0 - 0.0 - - 10 - - - -
29/01:30pm 21.7 ENE 7 9 1021.3 - 0.0 - - 10 - - - -
29/01:00pm 20.9 ENE 7 8 1021.6 - 0.0 - - 10 - - - -
29/12:30pm 21.0 ENE 6 7 1021.9 - 0.0 - - 10 - - - -
29/12:00pm 20.6 E 7 9 1022.0 - 0.0 - - 10 - - - -
29/11:30am 20.9 E 6 9 1022.1 - 0.0 - - 6 - - - -
29/11:00am 20.2 SSW 5 7 1022.2 - 0.0 - - 10 - - - -
29/10:30am 19.1 SSE 5 7 1022.3 - 0.0 - - 10 - - - -
29/10:00am 17.9 WSW 5 7 1022.3 - 0.0 - - 10 - - - -
29/09:30am 16.6 N 2 5 1022.3 - 0.0 - - 10 - - - -
29/09:00am 14.5 WSW 4 6 1022.2 - 0.0 - - 9 - - - -
29/08:30am 13.0 SW 2 4 1021.9 - 0.0 - - 10 - - - -
29/08:00am 10.7 CALM 0 0 1021.7 - 0.0 - - 9 - - - -
29/07:30am 9.0 NW 5 6 1021.5 - 0.0 - - 8 - - - -
29/07:23am 9.1 NW 5 6 1021.4 - 0.0 - - 8 - - - -
29/07:09am 8.3 WNW 3 4 1021.4 - 0.0 - - 5 - - - -
29/07:00am 8.6 WNW 4 5 1021.3 - 0.0 - - 10 - - - -
29/06:30am 8.8 NW 3 4 1021.2 - 0.0 - - 10 - - - -
29/06:00am 9.2 WNW 4 6 1021.0 - 0.0 - - 10 - - - -
29/05:30am 9.5 WNW 4 4 1021.0 - 0.0 - - 10 - - - -
29/05:00am 9.5 W 3 5 1021.0 - 0.0 - - 10 - - - -
29/04:30am 9.9 WNW 5 6 1021.0 - 0.0 - - 10 - - - -
29/04:00am 9.6 NW 3 4 1021.1 - 0.0 - - 9 - - - -
29/03:30am 9.6 CALM 0 0 1021.3 - 0.0 - - 9 - - - -
29/03:00am 9.8 CALM 0 0 1021.8 - 0.0 - - 9 - - - -
29/02:30am 9.7 WNW 2 4 1021.9 - 0.0 - - 10 - - - -
29/02:00am 10.3 WNW 2 3 1022.2 - 0.0 - - 10 - - - -
29/01:30am 10.8 WNW 1 4 1022.3 - 0.0 - - 8 - - - -
29/01:00am 10.8 CALM 0 0 1022.6 - 0.0 - - 10 - - - -
29/12:30am 11.5 WNW 3 4 1022.9 - 0.0 - - 7 - - - -
29/12:00am 11.8 WNW 3 3 1023.1 - 0.0 - - 9 - - - -
 
Date/Time
EDT
Temp

°C
Wind Pressure Rain
since 9am
mm
Weather Cloud Vis
km
Sea
Height
m
Swell
Dir
 
Speed
knots
Gust
knots
hPa Trend Height
m
Period
s
Dir
28/11:40pm 11.9 WNW 3 3 1023.2 - 0.0 - - 9 - - - -
28/11:30pm 12.1 WNW 3 3 1023.3 - 0.0 - - 5 - - - -
28/11:00pm 12.8 WNW 3 3 1023.3 - 0.0 - Partly cloudy 8 - - - -
28/10:30pm 13.5 WNW 4 4 1023.5 - 0.0 - Partly cloudy 9 - - - -
28/10:00pm 13.9 WNW 4 5 1023.6 - 0.0 - - 6 - - - -
28/09:34pm 14.0 W 4 5 1023.5 - 0.0 - - 7 - - - -
28/09:30pm 14.1 W 4 5 1023.4 - 0.0 - - 8 - - - -
28/09:22pm 14.2 W 4 5 1023.3 - 0.0 - - 5 - - - -
28/09:00pm 14.7 CALM 0 0 1023.2 - 0.0 - Partly cloudy 8 - - - -

Other Formats:

Comma delimited format used in spreadsheet applications
http://www.bom.gov.au/fwo/IDN60701/IDN60701.95937.axf

JavaScript Object Notation format (JSON) in row-major order
http://www.bom.gov.au/fwo/IDN60701/IDN60701.95937.json